createdAt,value
2017-04-21T00:00:16.956Z,3.57
2017-04-21T00:01:17.100Z,3.54
2017-04-21T00:02:17.269Z,3.48
2017-04-21T00:03:17.391Z,3.53
2017-04-21T00:06:22.512Z,3.61
2017-04-21T00:07:16.722Z,3.67
2017-04-21T00:09:22.058Z,3.62
2017-04-21T00:10:14.844Z,3.61
2017-04-21T00:11:14.701Z,3.55
2017-04-21T00:14:17.789Z,3.52
2017-04-21T00:15:16.579Z,3.52
2017-04-21T00:16:16.734Z,3.47
2017-04-21T00:17:22.694Z,3.53
2017-04-21T00:18:27.617Z,3.45
2017-04-21T00:19:21.324Z,3.46
2017-04-21T00:20:21.871Z,3.51
2017-04-21T00:22:18.132Z,3.49
2017-04-21T00:24:18.171Z,3.51
2017-04-21T00:25:16.630Z,3.51
2017-04-21T00:26:12.984Z,3.46
2017-04-21T00:28:17.297Z,3.47
2017-04-21T00:30:20.544Z,3.51
2017-04-21T00:31:22.288Z,3.52
2017-04-21T00:35:17.157Z,3.55
2017-04-21T00:37:18.477Z,3.51
2017-04-21T00:38:14.678Z,3.47
2017-04-21T00:39:14.472Z,3.45
2017-04-21T00:40:22.674Z,3.42
2017-04-21T00:41:22.557Z,3.41
2017-04-21T00:42:22.352Z,3.45
2017-04-21T00:43:18.452Z,3.45
2017-04-21T00:46:14.766Z,3.48
2017-04-21T00:49:17.572Z,3.36
2017-04-21T00:50:14.611Z,3.24
2017-04-21T00:51:17.166Z,3.23
2017-04-21T00:52:21.925Z,3.27
2017-04-21T00:54:15.038Z,3.35
2017-04-21T00:55:16.711Z,3.33
2017-04-21T00:56:17.239Z,3.20
2017-04-21T00:57:15.079Z,3.22
2017-04-21T00:59:17.959Z,3.36
2017-04-21T01:00:17.244Z,3.39
2017-04-21T01:03:14.605Z,3.39
2017-04-21T01:05:13.724Z,3.35
2017-04-21T01:07:15.389Z,3.32
2017-04-21T01:08:15.486Z,3.34
2017-04-21T01:09:14.119Z,3.33
2017-04-21T01:10:13.315Z,3.27
2017-04-21T01:13:15.502Z,3.19
2017-04-21T01:15:14.908Z,3.20
2017-04-21T01:18:13.471Z,3.15
2017-04-21T01:19:15.936Z,3.19
2017-04-21T01:20:14.094Z,3.22
2017-04-21T01:21:14.088Z,3.21
2017-04-21T01:22:17.678Z,3.21
2017-04-21T01:23:16.388Z,3.21
2017-04-21T01:26:22.677Z,3.13
2017-04-21T01:27:13.849Z,3.01
2017-04-21T01:28:17.945Z,2.97
2017-04-21T01:30:17.497Z,3.08
2017-04-21T01:31:17.685Z,3.09
2017-04-21T01:33:15.022Z,3.18
2017-04-21T01:34:16.673Z,3.15
2017-04-21T01:36:15.339Z,3.18
2017-04-21T01:39:13.277Z,3.05
2017-04-21T01:40:17.079Z,3.11
2017-04-21T01:41:13.545Z,3.16
2017-04-21T01:44:14.489Z,3.11
2017-04-21T01:47:14.198Z,3.08
2017-04-21T01:48:21.729Z,3.11
2017-04-21T01:50:20.537Z,3.15
2017-04-21T01:51:16.788Z,3.14
2017-04-21T01:52:15.051Z,3.15
2017-04-21T01:55:22.505Z,3.09
2017-04-21T01:56:17.363Z,3.14
2017-04-21T01:58:13.988Z,3.07
2017-04-21T02:03:18.457Z,3.05
2017-04-21T02:04:13.615Z,3.06
2017-04-21T02:05:19.481Z,3.04
2017-04-21T02:08:13.276Z,3.12
2017-04-21T02:10:17.552Z,2.97
2017-04-21T02:11:17.609Z,3.01
2017-04-21T02:12:18.526Z,2.98
2017-04-21T02:13:18.236Z,3.02
2017-04-21T02:14:14.878Z,3.02
2017-04-21T02:22:17.254Z,2.93
2017-04-21T02:28:14.859Z,2.91
2017-04-21T02:29:17.728Z,2.82
2017-04-21T02:30:17.265Z,2.77
2017-04-21T02:31:12.857Z,2.72
2017-04-21T02:34:22.366Z,2.74
2017-04-21T02:36:17.311Z,2.80
2017-04-21T02:37:14.611Z,2.80
2017-04-21T02:38:22.833Z,2.74
2017-04-21T02:39:22.546Z,2.78
2017-04-21T02:40:15.324Z,2.84
2017-04-21T02:41:17.288Z,2.88
2017-04-21T02:42:16.401Z,2.92
2017-04-21T02:43:17.208Z,2.93
2017-04-21T02:47:17.162Z,2.92
2017-04-21T02:48:15.810Z,2.85
2017-04-21T02:49:14.963Z,2.88
2017-04-21T02:50:22.068Z,2.95
2017-04-21T02:51:15.262Z,2.96
2017-04-21T02:52:19.027Z,2.94
2017-04-21T02:53:14.000Z,2.90
2017-04-21T02:54:16.807Z,2.98
2017-04-21T02:56:22.080Z,2.79
2017-04-21T02:58:16.947Z,2.74
2017-04-21T03:00:12.477Z,2.74
2017-04-21T03:01:22.554Z,2.73
2017-04-21T03:02:16.918Z,2.72
2017-04-21T03:03:14.956Z,2.65
2017-04-21T03:04:22.548Z,2.74
2017-04-21T03:05:14.266Z,2.66
2017-04-21T03:06:17.386Z,2.69
2017-04-21T03:07:19.550Z,2.73
2017-04-21T03:08:16.688Z,2.76
2017-04-21T03:13:16.677Z,2.80
2017-04-21T03:14:19.291Z,2.80
2017-04-21T03:15:15.362Z,2.80
2017-04-21T03:16:15.004Z,2.77
2017-04-21T03:19:18.086Z,2.73
2017-04-21T03:20:22.157Z,2.74
2017-04-21T03:21:16.663Z,2.63
2017-04-21T03:22:14.894Z,2.64
2017-04-21T03:24:23.231Z,2.70
2017-04-21T03:25:22.038Z,2.74
2017-04-21T03:27:17.426Z,2.72
2017-04-21T03:28:14.725Z,2.63
2017-04-21T03:29:22.534Z,2.66
2017-04-21T03:31:16.645Z,2.61
2017-04-21T03:34:22.685Z,2.63
2017-04-21T03:35:17.571Z,2.71
2017-04-21T03:36:21.834Z,2.64
2017-04-21T03:37:17.663Z,2.65
2017-04-21T03:39:14.630Z,2.76
2017-04-21T03:46:16.597Z,2.71
2017-04-21T03:47:15.001Z,2.73
2017-04-21T03:51:15.810Z,2.76
2017-04-21T03:52:20.488Z,2.69
2017-04-21T04:03:16.867Z,2.66
2017-04-21T04:10:13.729Z,2.69
2017-04-21T04:17:14.751Z,2.65
2017-04-21T04:18:14.746Z,2.72
2017-04-21T04:19:17.406Z,2.69
2017-04-21T04:20:17.058Z,2.62
2017-04-21T04:21:22.579Z,2.60
2017-04-21T04:22:22.249Z,2.61
2017-04-21T04:27:17.089Z,2.63
2017-04-21T04:30:16.271Z,2.56
2017-04-21T04:31:12.761Z,2.59
2017-04-21T04:43:14.814Z,2.73
2017-04-21T04:44:19.687Z,2.77
2017-04-21T04:46:17.036Z,2.74
2017-04-21T04:52:14.833Z,2.72
2017-04-21T04:57:14.782Z,2.99
2017-04-21T04:58:14.816Z,2.96
2017-04-21T05:00:22.367Z,2.95
2017-04-21T05:02:14.812Z,2.96
2017-04-21T05:25:15.219Z,3.07
2017-04-21T05:39:22.942Z,3.33
2017-04-21T05:56:16.523Z,3.59
2017-04-21T05:59:16.139Z,3.74
2017-04-21T06:09:21.982Z,2.94
2017-04-21T06:23:26.021Z,3.83
2017-04-21T06:24:15.364Z,3.88
2017-04-21T06:28:18.447Z,3.95
2017-04-21T06:32:17.354Z,4.03
2017-04-21T06:35:14.924Z,4.08
2017-04-21T06:40:16.820Z,4.30
2017-04-21T06:42:24.961Z,4.45
2017-04-21T06:43:20.854Z,4.51
2017-04-21T06:44:14.724Z,4.49
2017-04-21T06:45:14.637Z,4.53
2017-04-21T06:46:16.746Z,4.50
2017-04-21T06:47:18.448Z,4.52
2017-04-21T06:49:14.650Z,4.63
2017-04-21T06:50:16.800Z,4.62
2017-04-21T07:11:14.934Z,5.16
2017-04-21T07:16:18.461Z,5.34
2017-04-21T07:17:20.651Z,5.39
2017-04-21T07:31:14.434Z,5.80
2017-04-21T07:32:18.700Z,5.83
2017-04-21T07:42:17.149Z,6.03
2017-04-21T07:43:15.318Z,6.05
2017-04-21T07:49:12.407Z,6.01
2017-04-21T07:50:13.945Z,6.14
2017-04-21T07:52:14.078Z,6.07
2017-04-21T07:53:14.034Z,6.21
2017-04-21T07:54:14.960Z,6.23
2017-04-21T07:55:13.768Z,6.22
2017-04-21T08:00:14.433Z,6.28
2017-04-21T08:01:15.020Z,6.33
2017-04-21T08:02:17.493Z,6.42
2017-04-21T08:05:14.517Z,6.55
2017-04-21T08:15:18.786Z,6.65
2017-04-21T08:16:17.396Z,6.71
2017-04-21T08:17:18.367Z,6.75
2017-04-21T08:21:14.957Z,7.01
2017-04-21T08:26:14.750Z,7.12
2017-04-21T08:30:20.625Z,7.15
2017-04-21T08:31:16.237Z,7.20
2017-04-21T08:33:12.829Z,6.94
2017-04-21T08:34:14.799Z,7.02
2017-04-21T08:35:22.363Z,7.09
2017-04-21T08:37:14.156Z,7.20
2017-04-21T08:44:18.599Z,7.35
2017-04-21T08:52:26.277Z,7.61
2017-04-21T08:53:14.851Z,7.33
2017-04-21T08:54:14.468Z,7.48
2017-04-21T08:56:22.346Z,7.53
2017-04-21T08:57:14.645Z,7.54
2017-04-21T08:58:18.343Z,7.61
2017-04-21T09:07:16.689Z,7.98
2017-04-21T09:08:19.264Z,8.03
2017-04-21T09:09:15.381Z,8.06
2017-04-21T09:24:18.032Z,8.51
2017-04-21T09:28:17.266Z,8.70
2017-04-21T09:31:16.909Z,8.69
2017-04-21T09:32:21.316Z,8.61
2017-04-21T09:41:16.311Z,8.88
2017-04-21T09:42:18.094Z,8.99
2017-04-21T09:43:16.731Z,9.05
2017-04-21T09:45:16.078Z,8.92
2017-04-21T09:46:16.430Z,8.91
2017-04-21T09:48:21.507Z,8.85
2017-04-21T09:58:17.637Z,8.76
2017-04-21T10:03:14.779Z,9.02
2017-04-21T10:04:14.845Z,8.88
2017-04-21T10:09:17.001Z,9.19
2017-04-21T10:10:20.294Z,9.20
2017-04-21T10:16:22.054Z,9.19
2017-04-21T10:22:22.174Z,9.38
2017-04-21T10:24:17.712Z,9.41
2017-04-21T10:25:13.994Z,9.45
2017-04-21T10:31:18.157Z,9.58
2017-04-21T10:32:24.217Z,9.63
2017-04-21T10:33:14.724Z,9.64
2017-04-21T10:34:17.105Z,9.70
2017-04-21T10:54:14.989Z,10.09
2017-04-21T10:56:14.661Z,10.16
2017-04-21T10:57:14.665Z,10.13
2017-04-21T11:00:22.022Z,9.93
2017-04-21T11:02:23.489Z,9.86
2017-04-21T11:03:16.772Z,9.88
2017-04-21T11:09:17.085Z,9.82
2017-04-21T11:15:14.906Z,9.75
2017-04-21T11:19:14.996Z,10.11
2017-04-21T11:20:17.035Z,10.24
2017-04-21T11:24:18.570Z,10.20
2017-04-21T11:28:17.278Z,10.03
2017-04-21T11:33:20.127Z,10.65
2017-04-21T11:39:20.096Z,10.54
2017-04-21T11:41:22.534Z,10.67
2017-04-21T11:45:15.024Z,10.64
2017-04-21T11:52:22.176Z,10.79
2017-04-21T11:58:22.712Z,10.97
2017-04-21T12:00:16.796Z,10.78
2017-04-21T12:01:14.089Z,10.83
2017-04-21T12:02:19.855Z,10.68
2017-04-21T12:04:15.020Z,10.34
2017-04-21T12:07:17.254Z,10.45
2017-04-21T12:20:16.788Z,11.27
2017-04-21T12:21:14.778Z,11.29
2017-04-21T12:22:15.022Z,11.34
2017-04-21T12:23:13.474Z,11.28
2017-04-21T12:29:16.932Z,11.39
2017-04-21T12:33:14.856Z,11.27
2017-04-21T12:34:13.477Z,11.29
2017-04-21T12:39:20.257Z,10.90
2017-04-21T12:42:17.430Z,10.95
2017-04-21T12:43:16.120Z,11.01
2017-04-21T12:44:16.481Z,10.98
2017-04-21T12:45:16.790Z,10.97
2017-04-21T12:46:14.801Z,10.95
2017-04-21T12:55:22.805Z,11.18
2017-04-21T12:58:14.845Z,11.00
2017-04-21T12:59:17.467Z,11.20
2017-04-21T13:02:16.955Z,11.83
2017-04-21T13:03:17.089Z,11.93
2017-04-21T13:23:16.895Z,14.01
2017-04-21T13:28:15.010Z,14.60
2017-04-21T13:34:17.432Z,12.98
2017-04-21T13:35:14.808Z,12.64
2017-04-21T13:42:26.250Z,11.94
2017-04-21T13:43:16.109Z,11.93
2017-04-21T13:44:17.796Z,12.08
2017-04-21T13:58:14.916Z,18.30
2017-04-21T14:00:23.807Z,18.56
2017-04-21T14:01:14.769Z,18.29
2017-04-21T14:08:17.995Z,17.53
2017-04-21T14:09:14.870Z,17.09
2017-04-21T14:11:13.612Z,16.81
2017-04-21T14:28:15.471Z,14.52
2017-04-21T14:30:14.825Z,14.77
2017-04-21T14:32:17.244Z,14.54
2017-04-21T14:33:21.819Z,14.70
2017-04-21T14:35:22.488Z,14.72
2017-04-21T14:45:15.594Z,14.35
2017-04-21T14:50:15.061Z,13.21
2017-04-21T14:51:21.534Z,13.39
2017-04-21T14:55:15.588Z,14.11
2017-04-21T14:57:14.766Z,14.11
2017-04-21T14:58:14.965Z,14.15
2017-04-21T15:00:36.465Z,14.14
2017-04-21T15:06:13.710Z,14.16
2017-04-21T15:10:22.289Z,14.22
2017-04-21T15:15:16.270Z,14.44
2017-04-21T15:20:17.278Z,14.89
2017-04-21T15:21:15.122Z,15.10
2017-04-21T15:29:21.761Z,16.69
2017-04-21T15:35:32.280Z,15.95
2017-04-21T15:37:14.620Z,17.89
2017-04-21T15:38:14.079Z,18.54
2017-04-21T15:40:17.108Z,16.92
2017-04-21T15:43:17.479Z,18.58
2017-04-21T15:45:13.678Z,18.00
2017-04-21T15:46:14.379Z,18.70
2017-04-21T15:51:30.075Z,19.77
2017-04-21T15:53:16.622Z,19.52
2017-04-21T15:56:17.452Z,19.89
2017-04-21T15:57:14.661Z,19.65
2017-04-21T15:58:20.143Z,19.45
2017-04-21T15:59:16.281Z,19.65
2017-04-21T16:03:15.961Z,17.30
2017-04-21T16:04:13.698Z,16.97
2017-04-21T16:08:16.501Z,17.03
2017-04-21T16:09:17.879Z,16.77
2017-04-21T16:10:14.432Z,16.84
2017-04-21T16:12:17.148Z,16.63
2017-04-21T16:18:08.005Z,17.53
2017-04-21T16:19:08.890Z,17.37
2017-04-21T16:20:09.242Z,16.59
2017-04-21T16:21:08.015Z,16.57
2017-04-21T16:22:07.624Z,16.82
2017-04-21T16:23:08.080Z,17.03
2017-04-21T16:24:07.632Z,17.09
2017-04-21T16:25:08.692Z,17.31
2017-04-21T16:26:07.252Z,17.40
2017-04-21T16:27:08.888Z,17.30
2017-04-21T16:28:09.164Z,16.92
2017-04-21T16:29:08.952Z,16.45
2017-04-21T16:30:07.895Z,16.02
2017-04-21T16:31:08.575Z,15.83
2017-04-21T16:32:08.309Z,15.64
2017-04-21T16:33:09.547Z,15.32
2017-04-21T16:34:11.136Z,15.24
2017-04-21T16:35:08.918Z,15.05
2017-04-21T16:36:08.694Z,14.92
2017-04-21T16:37:08.297Z,14.84
2017-04-21T16:38:08.951Z,14.87
2017-04-21T16:39:07.983Z,14.82
2017-04-21T16:40:07.668Z,14.77
2017-04-21T16:41:07.184Z,14.74
2017-04-21T16:42:07.653Z,14.49
2017-04-21T16:43:08.092Z,14.38
2017-04-21T16:44:08.676Z,14.42
2017-04-21T16:45:08.298Z,14.41
2017-04-21T16:46:08.029Z,14.41
2017-04-21T16:47:07.625Z,14.37
2017-04-21T16:48:08.190Z,14.37
2017-04-21T16:49:08.893Z,14.27
2017-04-21T16:50:08.324Z,14.25
2017-04-21T16:51:08.960Z,13.86
2017-04-21T16:52:07.713Z,13.97
2017-04-21T16:53:08.276Z,13.93
2017-04-21T16:54:07.108Z,13.92
2017-04-21T16:55:08.891Z,13.98
2017-04-21T16:56:07.455Z,13.70
2017-04-21T16:57:08.034Z,13.73
2017-04-21T16:58:07.706Z,13.82
2017-04-21T16:59:08.250Z,13.86
2017-04-21T17:00:08.284Z,13.76
2017-04-21T17:01:08.199Z,13.86
2017-04-21T17:02:08.924Z,13.87
2017-04-21T17:03:08.625Z,13.52
2017-04-21T17:04:07.251Z,13.61
2017-04-21T17:05:08.701Z,13.53
2017-04-21T17:06:08.302Z,13.57
2017-04-21T17:07:08.032Z,13.57
2017-04-21T17:08:08.649Z,13.50
2017-04-21T17:09:08.297Z,13.47
2017-04-21T17:10:08.020Z,13.50
2017-04-21T17:11:08.741Z,13.50
2017-04-21T17:12:07.400Z,13.30
2017-04-21T17:13:08.010Z,13.31
2017-04-21T17:14:07.620Z,13.30
2017-04-21T17:15:08.025Z,13.20
2017-04-21T17:16:07.602Z,13.12
2017-04-21T17:17:08.416Z,13.08
2017-04-21T17:18:09.032Z,13.17
2017-04-21T17:19:07.714Z,13.06
2017-04-21T17:20:07.498Z,13.06
2017-04-21T17:21:08.104Z,13.14
2017-04-21T17:22:07.799Z,13.04
2017-04-21T17:23:08.313Z,13.10
2017-04-21T17:24:09.366Z,12.98
2017-04-21T17:25:08.358Z,13.04
2017-04-21T17:26:09.333Z,12.92
2017-04-21T17:27:08.134Z,12.83
2017-04-21T17:28:08.692Z,12.92
2017-04-21T17:29:08.249Z,12.94
2017-04-21T17:30:08.985Z,12.90
2017-04-21T17:31:07.820Z,12.81
2017-04-21T17:32:08.345Z,12.69
2017-04-21T17:33:09.020Z,12.74
2017-04-21T17:34:08.696Z,12.69
2017-04-21T17:35:08.327Z,12.67
2017-04-21T17:36:07.233Z,12.69
2017-04-21T17:37:07.934Z,12.67
2017-04-21T17:38:07.559Z,12.67
2017-04-21T17:39:09.022Z,12.74
2017-04-21T17:40:08.748Z,12.57
2017-04-21T17:41:07.687Z,12.47
2017-04-21T17:42:07.499Z,12.56
2017-04-21T17:43:09.018Z,12.63
2017-04-21T17:44:07.645Z,12.66
2017-04-21T17:45:08.049Z,12.65
2017-04-21T17:46:09.122Z,12.60
2017-04-21T17:47:08.715Z,12.50
2017-04-21T17:48:07.325Z,12.30
2017-04-21T17:49:07.932Z,12.37
2017-04-21T17:50:07.500Z,12.31
2017-04-21T17:51:08.072Z,12.31
2017-04-21T17:52:07.934Z,12.31
2017-04-21T17:53:09.073Z,12.29
2017-04-21T17:54:09.045Z,12.31
2017-04-21T17:55:08.821Z,12.24
2017-04-21T17:56:08.386Z,12.27
2017-04-21T17:57:08.266Z,12.23
2017-04-21T17:58:07.933Z,12.21
2017-04-21T17:59:08.437Z,12.21
2017-04-21T18:00:08.071Z,12.27
2017-04-21T18:01:07.683Z,12.28
2017-04-21T18:02:08.112Z,12.22
2017-04-21T18:03:08.802Z,12.15
2017-04-21T18:04:07.794Z,12.16
2017-04-21T18:05:07.308Z,12.09
2017-04-21T18:06:09.062Z,11.97
2017-04-21T18:07:08.867Z,11.97
2017-04-21T18:08:07.502Z,12.03
2017-04-21T18:09:07.169Z,12.01
2017-04-21T18:10:08.752Z,11.92
2017-04-21T18:11:07.493Z,11.83
2017-04-21T18:12:09.050Z,11.72
2017-04-21T18:13:07.754Z,11.62
2017-04-21T18:14:08.429Z,11.54
2017-04-21T18:15:07.174Z,11.52
2017-04-21T18:16:08.982Z,11.46
2017-04-21T18:17:08.489Z,11.41
2017-04-21T18:18:08.089Z,11.42
2017-04-21T18:19:08.742Z,11.47
2017-04-21T18:20:07.414Z,11.46
2017-04-21T18:21:09.091Z,11.40
2017-04-21T18:22:07.628Z,11.36
2017-04-21T18:23:07.371Z,11.28
2017-04-21T18:24:09.274Z,11.30
2017-04-21T18:25:08.769Z,11.25
2017-04-21T18:26:07.423Z,11.26
2017-04-21T18:27:08.177Z,11.21
2017-04-21T18:28:07.848Z,11.12
2017-04-21T18:29:08.329Z,11.08
2017-04-21T18:30:07.475Z,11.07
2017-04-21T18:31:09.325Z,10.97
2017-04-21T18:32:08.803Z,10.94
2017-04-21T18:33:08.488Z,10.92
2017-04-21T18:34:08.039Z,10.81
2017-04-21T18:35:08.739Z,10.73
2017-04-21T18:36:08.431Z,10.74
2017-04-21T18:37:07.428Z,10.73
2017-04-21T18:38:09.212Z,10.67
2017-04-21T18:39:08.780Z,10.63
2017-04-21T18:40:08.433Z,10.63
2017-04-21T18:41:08.066Z,10.62
2017-04-21T18:42:08.810Z,10.58
2017-04-21T18:43:09.024Z,10.53
2017-04-21T18:44:08.543Z,10.44
2017-04-21T18:45:07.296Z,10.42
2017-04-21T18:46:08.996Z,10.42
2017-04-21T18:47:08.521Z,10.36
2017-04-21T18:48:07.093Z,10.35
2017-04-21T18:49:08.538Z,10.35
2017-04-21T18:50:07.146Z,10.38
2017-04-21T18:51:08.568Z,10.29
2017-04-21T18:52:07.408Z,10.30
2017-04-21T18:53:09.108Z,10.25
2017-04-21T18:54:09.164Z,10.14
2017-04-21T18:55:09.100Z,10.16
2017-04-21T18:56:09.104Z,10.15
2017-04-21T18:57:09.214Z,10.17
2017-04-21T18:58:08.200Z,10.14
2017-04-21T18:59:08.844Z,10.14
2017-04-21T19:00:07.595Z,10.10
2017-04-21T19:01:08.715Z,10.07
2017-04-21T19:02:07.384Z,10.07
2017-04-21T19:03:08.892Z,10.02
2017-04-21T19:04:07.669Z,10.04
2017-04-21T19:05:08.101Z,9.98
2017-04-21T19:06:08.574Z,9.95
2017-04-21T19:07:08.162Z,9.97
2017-04-21T19:08:08.151Z,10.00
2017-04-21T19:09:07.926Z,9.94
2017-04-21T19:10:08.400Z,9.89
2017-04-21T19:11:08.090Z,9.89
2017-04-21T19:12:08.527Z,9.86
2017-04-21T19:13:07.318Z,9.82
2017-04-21T19:14:07.821Z,9.75
2017-04-21T19:15:07.441Z,9.73
2017-04-21T19:16:08.900Z,9.77
2017-04-21T19:17:08.604Z,9.71
2017-04-21T19:18:08.290Z,9.70
2017-04-21T19:19:09.167Z,9.65
2017-04-21T19:20:08.849Z,9.65
2017-04-21T19:21:08.386Z,9.66
2017-04-21T19:22:07.214Z,9.66
2017-04-21T19:23:08.821Z,9.62
2017-04-21T19:24:08.484Z,9.60
2017-04-21T19:25:09.173Z,9.63
2017-04-21T19:26:09.107Z,9.63
2017-04-21T19:27:07.779Z,9.66
2017-04-21T19:28:07.443Z,9.59
2017-04-21T19:29:08.882Z,9.61
2017-04-21T19:30:07.758Z,9.53
2017-04-21T19:31:07.219Z,9.53
2017-04-21T19:32:08.731Z,9.52
2017-04-21T19:33:08.229Z,9.44
2017-04-21T19:34:08.819Z,9.43
2017-04-21T19:35:08.640Z,9.46
2017-04-21T19:36:08.222Z,9.47
2017-04-21T19:37:07.886Z,9.49
2017-04-21T19:38:07.536Z,9.49
2017-04-21T19:39:09.183Z,9.48
2017-04-21T19:40:08.830Z,9.40
2017-04-21T19:41:08.450Z,9.34
2017-04-21T19:42:08.909Z,9.34
2017-04-21T19:43:07.700Z,9.38
2017-04-21T19:44:08.139Z,9.35
2017-04-21T19:45:07.609Z,9.33
2017-04-21T19:46:08.958Z,9.34
2017-04-21T19:47:08.538Z,9.33
2017-04-21T19:48:08.280Z,9.33
2017-04-21T19:49:08.028Z,9.32
2017-04-21T19:50:07.948Z,9.24
2017-04-21T19:51:07.766Z,9.22
2017-04-21T19:52:07.282Z,9.15
2017-04-21T19:53:07.776Z,9.12
2017-04-21T19:54:07.675Z,9.19
2017-04-21T19:55:07.167Z,9.26
2017-04-21T19:56:07.699Z,9.22
2017-04-21T19:57:08.162Z,9.21
2017-04-21T19:58:08.623Z,9.10
2017-04-21T19:59:08.630Z,9.03
2017-04-21T20:00:08.211Z,9.11
2017-04-21T20:01:08.894Z,9.16
2017-04-21T20:02:08.562Z,9.17
2017-04-21T20:03:08.188Z,9.11
2017-04-21T20:04:08.659Z,9.17
2017-04-21T20:05:08.295Z,9.13
2017-04-21T20:06:08.112Z,9.09
2017-04-21T20:07:08.961Z,9.10
2017-04-21T20:08:08.796Z,9.08
2017-04-21T20:09:07.381Z,9.03
2017-04-21T20:10:09.180Z,9.03
2017-04-21T20:11:08.173Z,8.99
2017-04-21T20:12:08.657Z,9.06
2017-04-21T20:13:07.493Z,9.12
2017-04-21T20:14:08.945Z,9.11
2017-04-21T20:15:07.204Z,9.08
2017-04-21T20:16:08.639Z,9.07
2017-04-21T20:17:08.324Z,9.01
2017-04-21T20:18:08.017Z,9.00
2017-04-21T20:19:07.497Z,9.00
2017-04-21T20:20:08.006Z,8.94
2017-04-21T20:21:07.684Z,8.82
2017-04-21T20:22:07.087Z,8.74
2017-04-21T20:23:08.625Z,8.75
2017-04-21T20:24:08.223Z,8.79
2017-04-21T20:25:07.840Z,8.77
2017-04-21T20:26:07.365Z,8.73
2017-04-21T20:27:07.913Z,8.68
2017-04-21T20:28:07.377Z,8.70
2017-04-21T20:29:07.923Z,8.62
2017-04-21T20:30:07.413Z,8.61
2017-04-21T20:31:08.944Z,8.64
2017-04-21T20:32:08.635Z,8.65
2017-04-21T20:33:08.265Z,8.60
2017-04-21T20:34:08.961Z,8.61
2017-04-21T20:35:09.183Z,8.52
2017-04-21T20:36:07.753Z,8.52
2017-04-21T20:37:08.150Z,8.46
2017-04-21T20:38:07.740Z,8.39
2017-04-21T20:39:08.214Z,8.39
2017-04-21T20:40:07.908Z,8.39
2017-04-21T20:41:07.422Z,8.43
2017-04-21T20:42:08.933Z,8.40
2017-04-21T20:43:09.221Z,8.33
2017-04-21T20:44:07.823Z,8.23
2017-04-21T20:45:08.346Z,8.28
2017-04-21T20:46:08.325Z,8.29
2017-04-21T20:47:09.057Z,8.30
2017-04-21T20:48:08.687Z,8.36
2017-04-21T20:49:07.577Z,8.37
2017-04-21T20:50:09.040Z,8.29
2017-04-21T20:51:08.710Z,8.28
2017-04-21T20:52:08.340Z,8.27
2017-04-21T20:53:08.196Z,8.23
2017-04-21T20:54:07.937Z,8.32
2017-04-21T20:55:08.360Z,8.30
2017-04-21T20:56:07.978Z,8.29
2017-04-21T20:57:08.405Z,8.29
2017-04-21T20:58:09.001Z,8.27
2017-04-21T20:59:08.591Z,8.26
2017-04-21T21:00:08.697Z,8.26
2017-04-21T21:01:07.328Z,8.23
2017-04-21T21:02:07.915Z,8.25
2017-04-21T21:03:07.395Z,8.17
2017-04-21T21:04:07.534Z,8.04
2017-04-21T21:05:09.046Z,8.07
2017-04-21T21:06:07.739Z,8.01
2017-04-21T21:07:08.158Z,8.04
2017-04-21T21:08:07.795Z,8.07
2017-04-21T21:09:08.223Z,8.08
2017-04-21T21:10:08.750Z,8.16
2017-04-21T21:11:08.330Z,8.15
2017-04-21T21:12:08.025Z,8.09
2017-04-21T21:13:08.453Z,8.15
2017-04-21T21:14:08.087Z,8.12
2017-04-21T21:15:08.731Z,8.10
2017-04-21T21:16:07.444Z,8.07
2017-04-21T21:17:08.999Z,8.09
2017-04-21T21:18:08.565Z,7.95
2017-04-21T21:19:08.251Z,7.81
2017-04-21T21:20:08.787Z,7.82
2017-04-21T21:21:07.569Z,7.81
2017-04-21T21:22:09.025Z,7.78
2017-04-21T21:23:08.650Z,7.81
2017-04-21T21:24:08.210Z,7.65
2017-04-21T21:25:07.829Z,7.61
2017-04-21T21:26:07.358Z,7.64
2017-04-21T21:27:08.985Z,7.64
2017-04-21T21:28:08.675Z,7.66
2017-04-21T21:29:07.446Z,7.71
2017-04-21T21:30:07.969Z,7.73
2017-04-21T21:31:08.444Z,7.65
2017-04-21T21:32:09.076Z,7.69
2017-04-21T21:33:07.924Z,7.61
2017-04-21T21:34:07.557Z,7.50
2017-04-21T21:35:09.079Z,7.60
2017-04-21T21:36:07.795Z,7.66
2017-04-21T21:37:08.240Z,7.69
2017-04-21T21:38:07.872Z,7.68
2017-04-21T21:39:08.310Z,7.63
2017-04-21T21:40:08.759Z,7.60
2017-04-21T21:41:08.335Z,7.64
2017-04-21T21:42:09.024Z,7.61
2017-04-21T21:43:07.949Z,7.50
2017-04-21T21:44:08.777Z,7.51
2017-04-21T21:45:07.411Z,7.43
2017-04-21T21:46:08.905Z,7.39
2017-04-21T21:47:08.387Z,7.43
2017-04-21T21:48:09.012Z,7.44
2017-04-21T21:49:08.559Z,7.51
2017-04-21T21:50:09.053Z,7.51
2017-04-21T21:51:07.682Z,7.50
2017-04-21T21:52:07.196Z,7.45
2017-04-21T21:53:07.732Z,7.45
2017-04-21T21:54:07.173Z,7.44
2017-04-21T21:55:07.638Z,7.47
2017-04-21T21:56:08.098Z,7.37
2017-04-21T21:57:08.750Z,7.33
2017-04-21T21:58:07.427Z,7.38
2017-04-21T21:59:09.014Z,7.45
2017-04-21T22:00:07.254Z,7.41
2017-04-21T22:01:08.696Z,7.40
2017-04-21T22:02:08.253Z,7.37
2017-04-21T22:03:08.733Z,7.38
2017-04-21T22:04:07.727Z,7.40
2017-04-21T22:05:08.164Z,7.33
2017-04-21T22:06:08.693Z,7.36
2017-04-21T22:07:07.336Z,7.33
2017-04-21T22:08:09.175Z,7.35
2017-04-21T22:09:08.756Z,7.42
2017-04-21T22:10:07.446Z,7.44
2017-04-21T22:11:09.065Z,7.46
2017-04-21T22:12:08.714Z,7.38
2017-04-21T22:13:07.363Z,7.41
2017-04-21T22:14:08.259Z,7.55
2017-04-21T22:15:08.715Z,7.64
2017-04-21T22:16:08.446Z,7.50
2017-04-21T22:17:08.647Z,7.40
2017-04-21T22:18:08.173Z,7.45
2017-04-21T22:19:07.845Z,7.41
2017-04-21T22:20:07.336Z,7.33
2017-04-21T22:21:07.797Z,7.29
2017-04-21T22:22:08.295Z,7.35
2017-04-21T22:23:07.933Z,7.38
2017-04-21T22:24:08.351Z,7.31
2017-04-21T22:25:08.789Z,7.32
2017-04-21T22:26:07.889Z,7.33
2017-04-21T22:27:08.384Z,7.41
2017-04-21T22:28:08.840Z,7.51
2017-04-21T22:29:08.381Z,7.56
2017-04-21T22:30:08.965Z,7.62
2017-04-21T22:31:08.457Z,7.67
2017-04-21T22:32:08.115Z,7.64
2017-04-21T22:33:08.578Z,7.66
2017-04-21T22:34:08.108Z,7.63
2017-04-21T22:35:08.533Z,7.62
2017-04-21T22:36:07.156Z,7.66
2017-04-21T22:37:08.573Z,7.57
2017-04-21T22:38:08.777Z,7.54
2017-04-21T22:39:08.399Z,7.54
2017-04-21T22:40:09.091Z,7.50
2017-04-21T22:41:07.903Z,7.48
2017-04-21T22:42:07.563Z,7.49
2017-04-21T22:43:09.092Z,7.45
2017-04-21T22:44:07.883Z,7.43
2017-04-21T22:45:08.321Z,7.53
2017-04-21T22:46:08.846Z,7.57
2017-04-21T22:47:07.583Z,7.53
2017-04-21T22:48:08.043Z,7.59
2017-04-21T22:49:07.705Z,7.63
2017-04-21T22:50:07.364Z,7.60
2017-04-21T22:51:08.793Z,7.56
2017-04-21T22:52:08.451Z,7.53
2017-04-21T22:53:09.108Z,7.47
2017-04-21T22:54:08.759Z,7.46
2017-04-21T22:55:08.285Z,7.47
2017-04-21T22:56:08.801Z,7.56
2017-04-21T22:57:08.422Z,7.56
2017-04-21T22:58:07.206Z,7.48
2017-04-21T22:59:09.118Z,7.47
2017-04-21T23:00:07.843Z,7.48
2017-04-21T23:01:07.473Z,7.53
2017-04-21T23:02:08.997Z,7.48
2017-04-21T23:03:08.698Z,7.41
2017-04-21T23:04:07.371Z,7.39
2017-04-21T23:05:08.851Z,7.36
2017-04-21T23:06:07.605Z,7.36
2017-04-21T23:07:08.043Z,7.45
2017-04-21T23:08:07.454Z,7.49
2017-04-21T23:09:08.894Z,7.52
2017-04-21T23:10:07.517Z,7.53
2017-04-21T23:11:09.095Z,7.54
2017-04-21T23:12:09.136Z,7.56
2017-04-21T23:13:08.229Z,7.60
2017-04-21T23:14:08.695Z,7.58
2017-04-21T23:15:08.232Z,7.64
2017-04-21T23:16:08.656Z,7.61
2017-04-21T23:17:08.173Z,7.60
2017-04-21T23:18:08.628Z,7.66
2017-04-21T23:19:08.201Z,7.72
2017-04-21T23:20:07.820Z,7.76
2017-04-21T23:21:07.249Z,7.70
2017-04-21T23:22:08.218Z,7.63
2017-04-21T23:23:07.945Z,7.59
2017-04-21T23:24:07.436Z,7.52
2017-04-21T23:25:07.976Z,7.47
2017-04-21T23:26:08.419Z,7.50
2017-04-21T23:27:07.995Z,7.40
2017-04-21T23:28:07.578Z,7.39
2017-04-21T23:29:08.000Z,7.43
2017-04-21T23:30:07.795Z,7.44
2017-04-21T23:31:08.265Z,7.44
2017-04-21T23:32:08.679Z,7.34
2017-04-21T23:33:08.186Z,7.37
2017-04-21T23:34:08.606Z,7.30
2017-04-21T23:35:08.115Z,7.26
2017-04-21T23:36:08.536Z,7.35
2017-04-21T23:37:08.123Z,7.40
2017-04-21T23:38:07.656Z,7.44
2017-04-21T23:39:08.083Z,7.45
2017-04-21T23:40:07.630Z,7.45
2017-04-21T23:41:08.044Z,7.47
2017-04-21T23:42:07.631Z,7.47
2017-04-21T23:43:07.116Z,7.53
2017-04-21T23:44:07.627Z,7.53
2017-04-21T23:45:07.155Z,7.53
2017-04-21T23:46:07.645Z,7.54
2017-04-21T23:47:07.169Z,7.53
2017-04-21T23:48:07.749Z,7.48
2017-04-21T23:49:07.361Z,7.46
2017-04-21T23:50:07.941Z,7.43
2017-04-21T23:51:07.388Z,7.38
2017-04-21T23:52:08.161Z,7.32
2017-04-21T23:53:07.716Z,7.27
2017-04-21T23:54:07.386Z,7.27
2017-04-21T23:55:08.009Z,7.28
2017-04-21T23:56:07.468Z,7.31
2017-04-21T23:57:07.989Z,7.33